sensor_id;sensor_type;location;lat;lon;timestamp;P1;durP1;ratioP1;P2;durP2;ratioP2
29954;SDS011;68448;51.188;6.868;2023-12-20T00:01:48;20.93;;;9.83;;
29954;SDS011;68448;51.188;6.868;2023-12-20T00:04:16;15.57;;;8.40;;
29954;SDS011;68448;51.188;6.868;2023-12-20T00:06:43;19.70;;;7.90;;
29954;SDS011;68448;51.188;6.868;2023-12-20T00:09:10;15.03;;;7.20;;
29954;SDS011;68448;51.188;6.868;2023-12-20T00:11:37;12.50;;;6.03;;
29954;SDS011;68448;51.188;6.868;2023-12-20T00:14:05;16.50;;;5.90;;
29954;SDS011;68448;51.188;6.868;2023-12-20T00:16:33;13.67;;;5.13;;
29954;SDS011;68448;51.188;6.868;2023-12-20T00:19:00;11.03;;;5.30;;
29954;SDS011;68448;51.188;6.868;2023-12-20T00:21:27;10.60;;;5.00;;
29954;SDS011;68448;51.188;6.868;2023-12-20T00:23:55;14.77;;;6.10;;
29954;SDS011;68448;51.188;6.868;2023-12-20T00:26:22;13.07;;;5.97;;
29954;SDS011;68448;51.188;6.868;2023-12-20T00:28:49;15.50;;;6.03;;
29954;SDS011;68448;51.188;6.868;2023-12-20T00:31:16;14.20;;;6.43;;
29954;SDS011;68448;51.188;6.868;2023-12-20T00:33:45;15.47;;;6.70;;
29954;SDS011;68448;51.188;6.868;2023-12-20T00:36:12;17.73;;;7.83;;
29954;SDS011;68448;51.188;6.868;2023-12-20T00:38:39;15.50;;;7.57;;
29954;SDS011;68448;51.188;6.868;2023-12-20T00:41:06;15.97;;;7.60;;
29954;SDS011;68448;51.188;6.868;2023-12-20T00:43:33;17.00;;;7.00;;
29954;SDS011;68448;51.188;6.868;2023-12-20T00:46:01;16.37;;;6.30;;
29954;SDS011;68448;51.188;6.868;2023-12-20T00:48:28;16.10;;;7.77;;
29954;SDS011;68448;51.188;6.868;2023-12-20T00:50:56;12.13;;;6.10;;
29954;SDS011;68448;51.188;6.868;2023-12-20T00:53:23;12.47;;;7.77;;
29954;SDS011;68448;51.188;6.868;2023-12-20T00:55:50;23.50;;;7.50;;
29954;SDS011;68448;51.188;6.868;2023-12-20T00:58:18;25.87;;;9.33;;
29954;SDS011;68448;51.188;6.868;2023-12-20T01:00:45;17.63;;;7.93;;
29954;SDS011;68448;51.188;6.868;2023-12-20T01:03:12;22.37;;;9.47;;
29954;SDS011;68448;51.188;6.868;2023-12-20T01:05:39;27.97;;;9.03;;
29954;SDS011;68448;51.188;6.868;2023-12-20T01:08:08;19.80;;;9.03;;
29954;SDS011;68448;51.188;6.868;2023-12-20T01:10:35;22.10;;;9.40;;
29954;SDS011;68448;51.188;6.868;2023-12-20T01:13:02;23.50;;;9.70;;
29954;SDS011;68448;51.188;6.868;2023-12-20T01:15:30;24.43;;;10.07;;
29954;SDS011;68448;51.188;6.868;2023-12-20T01:17:57;24.00;;;10.23;;
29954;SDS011;68448;51.188;6.868;2023-12-20T01:20:24;23.60;;;9.97;;
29954;SDS011;68448;51.188;6.868;2023-12-20T01:22:51;29.83;;;11.97;;
29954;SDS011;68448;51.188;6.868;2023-12-20T01:25:20;27.63;;;13.23;;
29954;SDS011;68448;51.188;6.868;2023-12-20T01:27:47;27.13;;;13.53;;
29954;SDS011;68448;51.188;6.868;2023-12-20T01:30:14;24.23;;;12.20;;
29954;SDS011;68448;51.188;6.868;2023-12-20T01:32:42;35.30;;;15.33;;
29954;SDS011;68448;51.188;6.868;2023-12-20T01:35:09;28.07;;;13.67;;
29954;SDS011;68448;51.188;6.868;2023-12-20T01:37:36;27.20;;;13.47;;
29954;SDS011;68448;51.188;6.868;2023-12-20T01:40:04;33.07;;;14.10;;
29954;SDS011;68448;51.188;6.868;2023-12-20T01:42:32;31.23;;;14.07;;
29954;SDS011;68448;51.188;6.868;2023-12-20T01:45:00;38.10;;;16.70;;
29954;SDS011;68448;51.188;6.868;2023-12-20T01:47:27;35.70;;;16.20;;
29954;SDS011;68448;51.188;6.868;2023-12-20T01:49:54;37.13;;;16.47;;
29954;SDS011;68448;51.188;6.868;2023-12-20T01:52:21;30.30;;;15.50;;
29954;SDS011;68448;51.188;6.868;2023-12-20T01:54:49;30.20;;;15.97;;
29954;SDS011;68448;51.188;6.868;2023-12-20T01:57:16;33.10;;;15.83;;
29954;SDS011;68448;51.188;6.868;2023-12-20T01:59:44;37.53;;;14.80;;
29954;SDS011;68448;51.188;6.868;2023-12-20T02:02:11;29.43;;;14.97;;
29954;SDS011;68448;51.188;6.868;2023-12-20T02:04:39;31.37;;;15.03;;
29954;SDS011;68448;51.188;6.868;2023-12-20T02:07:06;35.43;;;12.60;;
29954;SDS011;68448;51.188;6.868;2023-12-20T02:09:34;27.73;;;12.47;;
29954;SDS011;68448;51.188;6.868;2023-12-20T02:12:01;31.43;;;13.40;;
29954;SDS011;68448;51.188;6.868;2023-12-20T02:14:29;23.37;;;12.13;;
29954;SDS011;68448;51.188;6.868;2023-12-20T02:16:57;23.97;;;11.03;;
29954;SDS011;68448;51.188;6.868;2023-12-20T02:19:24;24.43;;;10.70;;
29954;SDS011;68448;51.188;6.868;2023-12-20T02:22:05;29.67;;;12.73;;
29954;SDS011;68448;51.188;6.868;2023-12-20T02:24:33;25.17;;;12.60;;
29954;SDS011;68448;51.188;6.868;2023-12-20T02:27:00;32.17;;;12.67;;
29954;SDS011;68448;51.188;6.868;2023-12-20T02:29:27;27.30;;;11.70;;
29954;SDS011;68448;51.188;6.868;2023-12-20T02:31:54;26.47;;;12.30;;
29954;SDS011;68448;51.188;6.868;2023-12-20T02:34:21;37.77;;;12.20;;
29954;SDS011;68448;51.188;6.868;2023-12-20T02:36:48;23.70;;;10.93;;
29954;SDS011;68448;51.188;6.868;2023-12-20T02:39:17;37.13;;;12.27;;
29954;SDS011;68448;51.188;6.868;2023-12-20T02:41:44;34.13;;;13.47;;
29954;SDS011;68448;51.188;6.868;2023-12-20T02:44:12;23.27;;;10.17;;
29954;SDS011;68448;51.188;6.868;2023-12-20T02:46:39;30.07;;;11.47;;
29954;SDS011;68448;51.188;6.868;2023-12-20T02:49:06;26.63;;;10.40;;
29954;SDS011;68448;51.188;6.868;2023-12-20T02:51:33;28.20;;;10.33;;
29954;SDS011;68448;51.188;6.868;2023-12-20T02:54:00;27.73;;;10.33;;
29954;SDS011;68448;51.188;6.868;2023-12-20T02:56:29;26.80;;;8.80;;
29954;SDS011;68448;51.188;6.868;2023-12-20T02:58:56;18.80;;;8.47;;
29954;SDS011;68448;51.188;6.868;2023-12-20T03:01:23;22.87;;;9.40;;
29954;SDS011;68448;51.188;6.868;2023-12-20T03:03:50;17.37;;;8.23;;
29954;SDS011;68448;51.188;6.868;2023-12-20T03:06:18;11.37;;;6.17;;
29954;SDS011;68448;51.188;6.868;2023-12-20T03:08:45;16.60;;;6.10;;
29954;SDS011;68448;51.188;6.868;2023-12-20T03:11:13;16.13;;;5.10;;
29954;SDS011;68448;51.188;6.868;2023-12-20T03:13:41;17.07;;;5.83;;
29954;SDS011;68448;51.188;6.868;2023-12-20T03:16:08;13.57;;;5.43;;
29954;SDS011;68448;51.188;6.868;2023-12-20T03:18:35;11.00;;;5.20;;
29954;SDS011;68448;51.188;6.868;2023-12-20T03:21:03;19.87;;;7.33;;
29954;SDS011;68448;51.188;6.868;2023-12-20T03:23:31;19.53;;;5.60;;
29954;SDS011;68448;51.188;6.868;2023-12-20T03:25:58;17.30;;;5.40;;
29954;SDS011;68448;51.188;6.868;2023-12-20T03:28:26;14.97;;;6.17;;
29954;SDS011;68448;51.188;6.868;2023-12-20T03:30:54;17.30;;;4.97;;
29954;SDS011;68448;51.188;6.868;2023-12-20T03:33:22;21.50;;;5.83;;
29954;SDS011;68448;51.188;6.868;2023-12-20T03:35:49;20.47;;;6.10;;
29954;SDS011;68448;51.188;6.868;2023-12-20T03:38:16;8.70;;;3.93;;
29954;SDS011;68448;51.188;6.868;2023-12-20T03:40:43;16.03;;;4.93;;
29954;SDS011;68448;51.188;6.868;2023-12-20T03:43:10;21.53;;;5.67;;
29954;SDS011;68448;51.188;6.868;2023-12-20T03:45:38;11.37;;;4.50;;
29954;SDS011;68448;51.188;6.868;2023-12-20T03:48:06;19.43;;;5.17;;
29954;SDS011;68448;51.188;6.868;2023-12-20T03:50:34;14.00;;;6.17;;
29954;SDS011;68448;51.188;6.868;2023-12-20T03:53:01;16.17;;;5.50;;
29954;SDS011;68448;51.188;6.868;2023-12-20T03:55:28;23.07;;;6.50;;
29954;SDS011;68448;51.188;6.868;2023-12-20T03:57:55;20.93;;;6.80;;
29954;SDS011;68448;51.188;6.868;2023-12-20T04:00:23;21.97;;;5.67;;
29954;SDS011;68448;51.188;6.868;2023-12-20T04:02:50;16.47;;;5.60;;
29954;SDS011;68448;51.188;6.868;2023-12-20T04:05:18;8.93;;;4.10;;
29954;SDS011;68448;51.188;6.868;2023-12-20T04:07:46;14.47;;;5.03;;
29954;SDS011;68448;51.188;6.868;2023-12-20T04:10:13;22.37;;;5.03;;
29954;SDS011;68448;51.188;6.868;2023-12-20T04:12:40;11.63;;;5.43;;
29954;SDS011;68448;51.188;6.868;2023-12-20T04:15:08;11.80;;;4.50;;
29954;SDS011;68448;51.188;6.868;2023-12-20T04:17:36;13.30;;;4.97;;
29954;SDS011;68448;51.188;6.868;2023-12-20T04:20:03;15.43;;;5.73;;
29954;SDS011;68448;51.188;6.868;2023-12-20T04:22:32;10.67;;;4.83;;
29954;SDS011;68448;51.188;6.868;2023-12-20T04:24:59;15.67;;;5.93;;
29954;SDS011;68448;51.188;6.868;2023-12-20T04:27:26;18.20;;;5.03;;
29954;SDS011;68448;51.188;6.868;2023-12-20T04:29:53;21.47;;;5.60;;
29954;SDS011;68448;51.188;6.868;2023-12-20T04:32:20;16.60;;;6.20;;
29954;SDS011;68448;51.188;6.868;2023-12-20T04:34:48;17.73;;;5.10;;
29954;SDS011;68448;51.188;6.868;2023-12-20T04:37:15;13.10;;;6.20;;
29954;SDS011;68448;51.188;6.868;2023-12-20T04:39:43;11.43;;;5.17;;
29954;SDS011;68448;51.188;6.868;2023-12-20T04:42:11;21.63;;;5.50;;
29954;SDS011;68448;51.188;6.868;2023-12-20T04:44:38;17.00;;;5.83;;
29954;SDS011;68448;51.188;6.868;2023-12-20T04:47:05;13.63;;;5.27;;
29954;SDS011;68448;51.188;6.868;2023-12-20T04:49:33;17.83;;;6.20;;
29954;SDS011;68448;51.188;6.868;2023-12-20T04:52:00;21.93;;;6.97;;
29954;SDS011;68448;51.188;6.868;2023-12-20T04:54:27;20.83;;;6.80;;
29954;SDS011;68448;51.188;6.868;2023-12-20T04:56:56;28.83;;;5.90;;
29954;SDS011;68448;51.188;6.868;2023-12-20T04:59:23;31.27;;;7.33;;
29954;SDS011;68448;51.188;6.868;2023-12-20T05:01:50;16.50;;;6.30;;
29954;SDS011;68448;51.188;6.868;2023-12-20T05:04:17;13.20;;;5.80;;
29954;SDS011;68448;51.188;6.868;2023-12-20T05:06:44;16.47;;;6.27;;
29954;SDS011;68448;51.188;6.868;2023-12-20T05:09:11;15.20;;;6.73;;
29954;SDS011;68448;51.188;6.868;2023-12-20T05:11:39;20.60;;;6.50;;
29954;SDS011;68448;51.188;6.868;2023-12-20T05:14:07;24.13;;;7.43;;
29954;SDS011;68448;51.188;6.868;2023-12-20T05:16:34;21.33;;;6.87;;
29954;SDS011;68448;51.188;6.868;2023-12-20T05:19:01;14.40;;;6.17;;
29954;SDS011;68448;51.188;6.868;2023-12-20T05:21:28;17.47;;;5.90;;
29954;SDS011;68448;51.188;6.868;2023-12-20T05:23:56;28.53;;;7.33;;
29954;SDS011;68448;51.188;6.868;2023-12-20T05:26:23;14.43;;;5.83;;
29954;SDS011;68448;51.188;6.868;2023-12-20T05:28:51;16.53;;;6.37;;
29954;SDS011;68448;51.188;6.868;2023-12-20T05:31:19;23.37;;;6.30;;
29954;SDS011;68448;51.188;6.868;2023-12-20T05:33:47;18.53;;;5.70;;
29954;SDS011;68448;51.188;6.868;2023-12-20T05:36:14;20.97;;;6.70;;
29954;SDS011;68448;51.188;6.868;2023-12-20T05:38:41;15.90;;;6.27;;
29954;SDS011;68448;51.188;6.868;2023-12-20T05:41:08;14.20;;;5.83;;
29954;SDS011;68448;51.188;6.868;2023-12-20T05:43:35;16.13;;;5.80;;
29954;SDS011;68448;51.188;6.868;2023-12-20T05:46:03;22.70;;;5.90;;
29954;SDS011;68448;51.188;6.868;2023-12-20T05:48:31;22.63;;;5.93;;
29954;SDS011;68448;51.188;6.868;2023-12-20T05:50:58;20.77;;;5.90;;
29954;SDS011;68448;51.188;6.868;2023-12-20T05:53:26;18.87;;;6.27;;
29954;SDS011;68448;51.188;6.868;2023-12-20T05:55:53;21.80;;;6.60;;
29954;SDS011;68448;51.188;6.868;2023-12-20T05:58:20;14.40;;;6.40;;
29954;SDS011;68448;51.188;6.868;2023-12-20T06:00:47;22.63;;;5.30;;
29954;SDS011;68448;51.188;6.868;2023-12-20T06:03:14;22.13;;;7.00;;
29954;SDS011;68448;51.188;6.868;2023-12-20T06:05:43;22.57;;;6.70;;
29954;SDS011;68448;51.188;6.868;2023-12-20T06:08:10;22.57;;;6.50;;
29954;SDS011;68448;51.188;6.868;2023-12-20T06:10:37;14.10;;;7.07;;
29954;SDS011;68448;51.188;6.868;2023-12-20T06:13:04;21.40;;;6.70;;
29954;SDS011;68448;51.188;6.868;2023-12-20T06:15:31;12.37;;;7.00;;
29954;SDS011;68448;51.188;6.868;2023-12-20T06:17:58;13.30;;;5.80;;
29954;SDS011;68448;51.188;6.868;2023-12-20T06:20:26;14.33;;;6.83;;
29954;SDS011;68448;51.188;6.868;2023-12-20T06:22:54;14.83;;;5.83;;
29954;SDS011;68448;51.188;6.868;2023-12-20T06:25:22;25.60;;;6.80;;
29954;SDS011;68448;51.188;6.868;2023-12-20T06:27:49;21.10;;;6.40;;
29954;SDS011;68448;51.188;6.868;2023-12-20T06:30:16;19.03;;;5.87;;
29954;SDS011;68448;51.188;6.868;2023-12-20T06:32:43;15.13;;;5.97;;
29954;SDS011;68448;51.188;6.868;2023-12-20T06:35:11;23.50;;;5.80;;
29954;SDS011;68448;51.188;6.868;2023-12-20T06:37:38;22.70;;;6.73;;
29954;SDS011;68448;51.188;6.868;2023-12-20T06:40:07;19.63;;;7.17;;
29954;SDS011;68448;51.188;6.868;2023-12-20T06:42:44;23.63;;;6.40;;
29954;SDS011;68448;51.188;6.868;2023-12-20T06:45:24;20.67;;;8.27;;
29954;SDS011;68448;51.188;6.868;2023-12-20T06:47:51;21.27;;;6.27;;
29954;SDS011;68448;51.188;6.868;2023-12-20T06:50:19;30.20;;;7.53;;
29954;SDS011;68448;51.188;6.868;2023-12-20T06:52:46;23.80;;;6.47;;
29954;SDS011;68448;51.188;6.868;2023-12-20T06:55:14;20.50;;;5.63;;
29954;SDS011;68448;51.188;6.868;2023-12-20T06:57:42;14.23;;;5.60;;
29954;SDS011;68448;51.188;6.868;2023-12-20T07:00:10;14.53;;;5.43;;
29954;SDS011;68448;51.188;6.868;2023-12-20T07:02:38;23.43;;;5.03;;
29954;SDS011;68448;51.188;6.868;2023-12-20T07:05:05;17.87;;;7.47;;
29954;SDS011;68448;51.188;6.868;2023-12-20T07:07:32;21.53;;;6.40;;
29954;SDS011;68448;51.188;6.868;2023-12-20T07:10:00;19.07;;;6.80;;
29954;SDS011;68448;51.188;6.868;2023-12-20T07:12:28;15.20;;;6.03;;
29954;SDS011;68448;51.188;6.868;2023-12-20T07:14:55;21.07;;;5.80;;
29954;SDS011;68448;51.188;6.868;2023-12-20T07:17:22;17.33;;;5.97;;
29954;SDS011;68448;51.188;6.868;2023-12-20T07:19:49;12.40;;;4.77;;
29954;SDS011;68448;51.188;6.868;2023-12-20T07:22:17;15.87;;;5.73;;
29954;SDS011;68448;51.188;6.868;2023-12-20T07:24:44;18.37;;;5.33;;
29954;SDS011;68448;51.188;6.868;2023-12-20T07:27:11;14.30;;;5.07;;
29954;SDS011;68448;51.188;6.868;2023-12-20T07:29:40;18.07;;;5.17;;
29954;SDS011;68448;51.188;6.868;2023-12-20T07:32:07;12.33;;;6.10;;
29954;SDS011;68448;51.188;6.868;2023-12-20T07:34:34;16.97;;;5.50;;
29954;SDS011;68448;51.188;6.868;2023-12-20T07:37:03;15.13;;;5.23;;
29954;SDS011;68448;51.188;6.868;2023-12-20T07:39:31;10.63;;;5.47;;
29954;SDS011;68448;51.188;6.868;2023-12-20T07:41:58;22.67;;;5.83;;
29954;SDS011;68448;51.188;6.868;2023-12-20T07:44:25;14.00;;;4.00;;
29954;SDS011;68448;51.188;6.868;2023-12-20T07:46:53;21.73;;;6.30;;
29954;SDS011;68448;51.188;6.868;2023-12-20T07:49:21;22.23;;;5.30;;
29954;SDS011;68448;51.188;6.868;2023-12-20T07:51:48;17.40;;;5.87;;
29954;SDS011;68448;51.188;6.868;2023-12-20T07:54:15;16.93;;;5.87;;
29954;SDS011;68448;51.188;6.868;2023-12-20T07:56:42;18.23;;;5.53;;
29954;SDS011;68448;51.188;6.868;2023-12-20T07:59:09;13.90;;;5.77;;
29954;SDS011;68448;51.188;6.868;2023-12-20T08:01:51;21.67;;;5.60;;
29954;SDS011;68448;51.188;6.868;2023-12-20T08:04:19;21.03;;;6.37;;
29954;SDS011;68448;51.188;6.868;2023-12-20T08:06:47;19.37;;;5.67;;
29954;SDS011;68448;51.188;6.868;2023-12-20T08:09:14;19.70;;;5.70;;
29954;SDS011;68448;51.188;6.868;2023-12-20T08:11:44;12.30;;;5.97;;
29954;SDS011;68448;51.188;6.868;2023-12-20T08:14:11;24.70;;;7.57;;
29954;SDS011;68448;51.188;6.868;2023-12-20T08:16:38;13.63;;;5.40;;
29954;SDS011;68448;51.188;6.868;2023-12-20T08:19:06;13.23;;;6.13;;
29954;SDS011;68448;51.188;6.868;2023-12-20T08:21:34;12.97;;;5.93;;
29954;SDS011;68448;51.188;6.868;2023-12-20T08:24:04;12.53;;;6.00;;
29954;SDS011;68448;51.188;6.868;2023-12-20T08:26:32;14.40;;;6.83;;
29954;SDS011;68448;51.188;6.868;2023-12-20T08:28:59;18.90;;;6.80;;
29954;SDS011;68448;51.188;6.868;2023-12-20T08:31:28;11.70;;;5.47;;
29954;SDS011;68448;51.188;6.868;2023-12-20T08:33:55;10.00;;;5.37;;
29954;SDS011;68448;51.188;6.868;2023-12-20T08:36:22;19.60;;;7.90;;
29954;SDS011;68448;51.188;6.868;2023-12-20T08:38:51;14.43;;;5.87;;
29954;SDS011;68448;51.188;6.868;2023-12-20T08:41:18;21.90;;;6.50;;
29954;SDS011;68448;51.188;6.868;2023-12-20T08:43:45;15.53;;;5.57;;
29954;SDS011;68448;51.188;6.868;2023-12-20T08:46:13;11.43;;;5.30;;
29954;SDS011;68448;51.188;6.868;2023-12-20T08:48:40;16.00;;;4.73;;
29954;SDS011;68448;51.188;6.868;2023-12-20T08:51:08;11.33;;;3.83;;
29954;SDS011;68448;51.188;6.868;2023-12-20T08:53:35;15.63;;;5.90;;
29954;SDS011;68448;51.188;6.868;2023-12-20T08:56:03;12.17;;;4.80;;
29954;SDS011;68448;51.188;6.868;2023-12-20T08:58:31;12.13;;;5.27;;
29954;SDS011;68448;51.188;6.868;2023-12-20T09:00:58;17.03;;;6.20;;
29954;SDS011;68448;51.188;6.868;2023-12-20T09:03:25;18.27;;;5.10;;
29954;SDS011;68448;51.188;6.868;2023-12-20T09:05:52;13.30;;;5.10;;
29954;SDS011;68448;51.188;6.868;2023-12-20T09:08:19;20.13;;;5.17;;
29954;SDS011;68448;51.188;6.868;2023-12-20T09:10:47;19.97;;;5.43;;
29954;SDS011;68448;51.188;6.868;2023-12-20T09:13:15;20.13;;;5.30;;
29954;SDS011;68448;51.188;6.868;2023-12-20T09:15:43;12.50;;;4.53;;
29954;SDS011;68448;51.188;6.868;2023-12-20T09:18:10;15.57;;;5.07;;
29954;SDS011;68448;51.188;6.868;2023-12-20T09:20:37;20.87;;;6.50;;
29954;SDS011;68448;51.188;6.868;2023-12-20T09:23:09;11.70;;;4.60;;
29954;SDS011;68448;51.188;6.868;2023-12-20T09:25:36;15.13;;;4.73;;
29954;SDS011;68448;51.188;6.868;2023-12-20T09:28:03;18.80;;;5.37;;
29954;SDS011;68448;51.188;6.868;2023-12-20T09:30:32;12.80;;;4.70;;
29954;SDS011;68448;51.188;6.868;2023-12-20T09:32:59;14.93;;;5.43;;
29954;SDS011;68448;51.188;6.868;2023-12-20T09:35:26;13.83;;;4.87;;
29954;SDS011;68448;51.188;6.868;2023-12-20T09:37:54;20.53;;;4.63;;
29954;SDS011;68448;51.188;6.868;2023-12-20T09:40:21;13.80;;;5.80;;
29954;SDS011;68448;51.188;6.868;2023-12-20T09:42:51;11.77;;;4.50;;
29954;SDS011;68448;51.188;6.868;2023-12-20T09:45:20;16.53;;;4.80;;
29954;SDS011;68448;51.188;6.868;2023-12-20T09:47:50;18.80;;;5.60;;
29954;SDS011;68448;51.188;6.868;2023-12-20T09:50:18;14.10;;;5.27;;
29954;SDS011;68448;51.188;6.868;2023-12-20T09:52:47;18.37;;;4.47;;
29954;SDS011;68448;51.188;6.868;2023-12-20T09:55:16;15.70;;;5.20;;
29954;SDS011;68448;51.188;6.868;2023-12-20T09:57:44;14.10;;;5.10;;
29954;SDS011;68448;51.188;6.868;2023-12-20T10:00:12;10.37;;;4.57;;
29954;SDS011;68448;51.188;6.868;2023-12-20T10:02:41;19.73;;;4.90;;
29954;SDS011;68448;51.188;6.868;2023-12-20T10:05:10;16.53;;;4.33;;
29954;SDS011;68448;51.188;6.868;2023-12-20T10:07:42;16.03;;;4.97;;
29954;SDS011;68448;51.188;6.868;2023-12-20T10:10:10;30.30;;;6.77;;
29954;SDS011;68448;51.188;6.868;2023-12-20T10:12:39;16.47;;;5.60;;
29954;SDS011;68448;51.188;6.868;2023-12-20T10:15:06;17.07;;;3.90;;
29954;SDS011;68448;51.188;6.868;2023-12-20T10:17:35;12.30;;;5.47;;
29954;SDS011;68448;51.188;6.868;2023-12-20T10:20:04;15.50;;;4.60;;
29954;SDS011;68448;51.188;6.868;2023-12-20T10:22:33;17.27;;;3.93;;
29954;SDS011;68448;51.188;6.868;2023-12-20T10:25:00;22.67;;;5.67;;
29954;SDS011;68448;51.188;6.868;2023-12-20T10:27:27;10.40;;;4.53;;
29954;SDS011;68448;51.188;6.868;2023-12-20T10:29:54;15.90;;;4.10;;
29954;SDS011;68448;51.188;6.868;2023-12-20T10:32:22;14.90;;;4.57;;
29954;SDS011;68448;51.188;6.868;2023-12-20T10:34:49;9.97;;;3.40;;
29954;SDS011;68448;51.188;6.868;2023-12-20T10:37:17;9.20;;;4.27;;
29954;SDS011;68448;51.188;6.868;2023-12-20T10:39:45;11.67;;;4.63;;
29954;SDS011;68448;51.188;6.868;2023-12-20T10:42:15;17.60;;;6.30;;
29954;SDS011;68448;51.188;6.868;2023-12-20T10:44:42;8.70;;;3.93;;
29954;SDS011;68448;51.188;6.868;2023-12-20T10:47:10;22.73;;;4.87;;
29954;SDS011;68448;51.188;6.868;2023-12-20T10:49:38;15.23;;;5.27;;
29954;SDS011;68448;51.188;6.868;2023-12-20T10:52:06;7.73;;;3.03;;
29954;SDS011;68448;51.188;6.868;2023-12-20T10:54:34;10.33;;;4.27;;
29954;SDS011;68448;51.188;6.868;2023-12-20T10:57:03;11.10;;;4.43;;
29954;SDS011;68448;51.188;6.868;2023-12-20T10:59:32;13.90;;;5.80;;
29954;SDS011;68448;51.188;6.868;2023-12-20T11:02:00;13.13;;;4.40;;
29954;SDS011;68448;51.188;6.868;2023-12-20T11:04:31;13.30;;;4.00;;
29954;SDS011;68448;51.188;6.868;2023-12-20T11:07:03;13.73;;;4.20;;
29954;SDS011;68448;51.188;6.868;2023-12-20T11:09:36;10.97;;;3.23;;
29954;SDS011;68448;51.188;6.868;2023-12-20T11:12:08;19.30;;;5.43;;
29954;SDS011;68448;51.188;6.868;2023-12-20T11:14:39;15.10;;;4.17;;
29954;SDS011;68448;51.188;6.868;2023-12-20T11:17:08;10.63;;;4.60;;
29954;SDS011;68448;51.188;6.868;2023-12-20T11:19:36;13.83;;;4.77;;
29954;SDS011;68448;51.188;6.868;2023-12-20T11:22:04;16.30;;;5.13;;
29954;SDS011;68448;51.188;6.868;2023-12-20T11:24:31;8.43;;;3.63;;
29954;SDS011;68448;51.188;6.868;2023-12-20T11:26:59;9.93;;;4.20;;
29954;SDS011;68448;51.188;6.868;2023-12-20T11:29:31;7.77;;;4.40;;
29954;SDS011;68448;51.188;6.868;2023-12-20T11:31:59;17.07;;;5.30;;
29954;SDS011;68448;51.188;6.868;2023-12-20T11:34:26;13.50;;;4.00;;
29954;SDS011;68448;51.188;6.868;2023-12-20T11:36:57;17.27;;;5.10;;
29954;SDS011;68448;51.188;6.868;2023-12-20T11:39:25;16.60;;;5.00;;
29954;SDS011;68448;51.188;6.868;2023-12-20T11:41:53;25.60;;;9.10;;
29954;SDS011;68448;51.188;6.868;2023-12-20T11:44:21;10.93;;;4.37;;
29954;SDS011;68448;51.188;6.868;2023-12-20T11:46:49;13.33;;;4.10;;
29954;SDS011;68448;51.188;6.868;2023-12-20T11:49:16;17.93;;;4.63;;
29954;SDS011;68448;51.188;6.868;2023-12-20T11:51:44;13.63;;;4.47;;
29954;SDS011;68448;51.188;6.868;2023-12-20T11:54:11;9.70;;;4.50;;
29954;SDS011;68448;51.188;6.868;2023-12-20T11:56:38;15.87;;;4.30;;
29954;SDS011;68448;51.188;6.868;2023-12-20T11:59:05;14.90;;;4.53;;
29954;SDS011;68448;51.188;6.868;2023-12-20T12:01:49;12.40;;;3.90;;
29954;SDS011;68448;51.188;6.868;2023-12-20T12:04:17;10.20;;;5.30;;
29954;SDS011;68448;51.188;6.868;2023-12-20T12:06:45;13.50;;;3.77;;
29954;SDS011;68448;51.188;6.868;2023-12-20T12:09:13;11.63;;;3.90;;
29954;SDS011;68448;51.188;6.868;2023-12-20T12:11:40;10.43;;;3.90;;
29954;SDS011;68448;51.188;6.868;2023-12-20T12:14:07;14.00;;;4.17;;
29954;SDS011;68448;51.188;6.868;2023-12-20T12:16:34;8.80;;;4.30;;
29954;SDS011;68448;51.188;6.868;2023-12-20T12:19:03;7.53;;;2.50;;
29954;SDS011;68448;51.188;6.868;2023-12-20T12:21:30;16.93;;;5.33;;
29954;SDS011;68448;51.188;6.868;2023-12-20T12:24:06;11.87;;;4.83;;
29954;SDS011;68448;51.188;6.868;2023-12-20T12:26:33;11.73;;;5.13;;
29954;SDS011;68448;51.188;6.868;2023-12-20T12:29:00;12.20;;;3.37;;
29954;SDS011;68448;51.188;6.868;2023-12-20T12:31:27;14.30;;;4.40;;
29954;SDS011;68448;51.188;6.868;2023-12-20T12:33:54;17.83;;;5.80;;
29954;SDS011;68448;51.188;6.868;2023-12-20T12:36:24;22.70;;;4.57;;
29954;SDS011;68448;51.188;6.868;2023-12-20T12:38:51;10.70;;;5.00;;
29954;SDS011;68448;51.188;6.868;2023-12-20T12:41:19;18.23;;;4.53;;
29954;SDS011;68448;51.188;6.868;2023-12-20T12:43:46;11.67;;;4.80;;
29954;SDS011;68448;51.188;6.868;2023-12-20T12:46:13;19.33;;;5.13;;
29954;SDS011;68448;51.188;6.868;2023-12-20T12:48:40;18.80;;;5.80;;
29954;SDS011;68448;51.188;6.868;2023-12-20T12:51:11;12.07;;;5.17;;
29954;SDS011;68448;51.188;6.868;2023-12-20T12:53:39;10.30;;;5.37;;
29954;SDS011;68448;51.188;6.868;2023-12-20T12:56:07;12.80;;;5.20;;
29954;SDS011;68448;51.188;6.868;2023-12-20T12:58:34;11.77;;;5.10;;
29954;SDS011;68448;51.188;6.868;2023-12-20T13:01:01;16.70;;;5.30;;
29954;SDS011;68448;51.188;6.868;2023-12-20T13:03:28;20.03;;;5.40;;
29954;SDS011;68448;51.188;6.868;2023-12-20T13:05:56;16.00;;;5.47;;
29954;SDS011;68448;51.188;6.868;2023-12-20T13:08:23;14.07;;;5.57;;
29954;SDS011;68448;51.188;6.868;2023-12-20T13:10:51;20.83;;;5.77;;
29954;SDS011;68448;51.188;6.868;2023-12-20T13:13:18;9.77;;;4.73;;
29954;SDS011;68448;51.188;6.868;2023-12-20T13:15:46;16.23;;;5.70;;
29954;SDS011;68448;51.188;6.868;2023-12-20T13:18:13;20.20;;;7.20;;
29954;SDS011;68448;51.188;6.868;2023-12-20T13:20:40;20.30;;;5.50;;
29954;SDS011;68448;51.188;6.868;2023-12-20T13:23:07;15.90;;;5.40;;
29954;SDS011;68448;51.188;6.868;2023-12-20T13:25:34;14.30;;;6.50;;
29954;SDS011;68448;51.188;6.868;2023-12-20T13:28:03;11.20;;;6.37;;
29954;SDS011;68448;51.188;6.868;2023-12-20T13:30:31;14.57;;;6.20;;
29954;SDS011;68448;51.188;6.868;2023-12-20T13:32:58;12.63;;;6.33;;
29954;SDS011;68448;51.188;6.868;2023-12-20T13:35:25;24.43;;;8.30;;
29954;SDS011;68448;51.188;6.868;2023-12-20T13:37:52;15.93;;;6.30;;
29954;SDS011;68448;51.188;6.868;2023-12-20T13:40:20;12.43;;;6.30;;
29954;SDS011;68448;51.188;6.868;2023-12-20T13:42:47;28.93;;;8.33;;
29954;SDS011;68448;51.188;6.868;2023-12-20T13:45:15;13.87;;;5.60;;
29954;SDS011;68448;51.188;6.868;2023-12-20T13:47:43;16.63;;;6.83;;
29954;SDS011;68448;51.188;6.868;2023-12-20T13:50:11;11.00;;;5.93;;
29954;SDS011;68448;51.188;6.868;2023-12-20T13:52:38;10.23;;;6.30;;
29954;SDS011;68448;51.188;6.868;2023-12-20T13:55:06;11.80;;;6.30;;
29954;SDS011;68448;51.188;6.868;2023-12-20T13:57:33;20.40;;;6.90;;
29954;SDS011;68448;51.188;6.868;2023-12-20T14:00:19;18.97;;;8.20;;
29954;SDS011;68448;51.188;6.868;2023-12-20T14:02:46;17.50;;;6.70;;
29954;SDS011;68448;51.188;6.868;2023-12-20T14:05:13;15.90;;;5.80;;
29954;SDS011;68448;51.188;6.868;2023-12-20T14:07:41;19.97;;;7.40;;
29954;SDS011;68448;51.188;6.868;2023-12-20T14:10:09;17.77;;;6.73;;
29954;SDS011;68448;51.188;6.868;2023-12-20T14:12:36;15.67;;;7.40;;
29954;SDS011;68448;51.188;6.868;2023-12-20T14:15:03;9.63;;;5.60;;
29954;SDS011;68448;51.188;6.868;2023-12-20T14:17:32;18.63;;;6.40;;
29954;SDS011;68448;51.188;6.868;2023-12-20T14:20:00;4.70;;;4.00;;
29954;SDS011;68448;51.188;6.868;2023-12-20T14:22:27;16.07;;;6.97;;
29954;SDS011;68448;51.188;6.868;2023-12-20T14:24:54;12.37;;;5.50;;
29954;SDS011;68448;51.188;6.868;2023-12-20T14:27:21;16.40;;;5.53;;
29954;SDS011;68448;51.188;6.868;2023-12-20T14:29:49;12.50;;;6.80;;
29954;SDS011;68448;51.188;6.868;2023-12-20T14:32:16;11.43;;;4.60;;
29954;SDS011;68448;51.188;6.868;2023-12-20T14:34:45;12.53;;;5.17;;
29954;SDS011;68448;51.188;6.868;2023-12-20T14:37:12;13.90;;;5.70;;